Airfield :
LOGIN :

Register | Disclaimer

   EN    FR    IT 

 










Legend :    VFR   Marginal VFR   IFR   Intensive IFR   Very Intensive IFR
Visi :
Ceiling :
>= 8 km
>= 3000ft
5 to 8 km
1000 to 3000 ft
1500m to 5 km
500 to 1000 ft
800 to 1500m
200 to 500 ft
< 800m
< 200 ft
Symbols :   Thunderstorms  Fog  Heavy snow  Heavy precipitations  Wind > 20 kt
SIGMETs :     Misc.  Thunderstorms  Icing  Turbulence  Mountain Waves  Volcanic Ashes







- Airport Elevation : 49 ft
- IATA code : GLZ


EHGR - Gilze-Rijen Airbase

CURRENT METAR :
  • 270625Z AUTO 03008KT 350V110 9999 BKN015 16/12 Q1029 WHT

EXPIRED METARs :
  • 270615Z AUTO 05009KT 360V110 9999 BKN015 16/11 Q1029 WHT
  • 270555Z AUTO 03011KT 340V080 9999 OVC013 15/12 Q1028 GRN
  • 270525Z AUTO 02009KT 350V120 9999 OVC013 15/12 Q1028 GRN
  • 270455Z AUTO 05007KT 020V110 9999 OVC013 15/12 Q1028 GRN
  • 270425Z AUTO 02010KT 340V100 9999 OVC013 15/12 Q1028 GRN
  • 270355Z AUTO 02009KT 330V060 9999 OVC013 15/12 Q1028 GRN

Expired Forecast.
No reported NOTAMs for that airfield.



MET'MAP, your aeronautical weather chart ! - Copyright ORBIFLY December 2007 - Disclaimer

ORBIFLY MET'MAP TEAM :

Programming & Development : Alexandra Zaïnal
Concept & Development : Baudouin d'Aumeries
Co-Development & Prog : Marc-Olivier Méhu
Technical & hardware support : Manuel Goepfert

Contact : metmap@orbifly.com




SOURCES & CREDITS :

   NOAA